sensor_id;sensor_type;location;lat;lon;timestamp;temperature;humidity
13591;DHT22;6866;50.778;7.206;2023-05-10T00:01:04;14.60;99.90
13591;DHT22;6866;50.778;7.206;2023-05-10T00:03:30;14.60;99.90
13591;DHT22;6866;50.778;7.206;2023-05-10T00:05:56;14.60;99.90
13591;DHT22;6866;50.778;7.206;2023-05-10T00:08:21;14.60;99.90
13591;DHT22;6866;50.778;7.206;2023-05-10T00:10:47;14.70;99.90
13591;DHT22;6866;50.778;7.206;2023-05-10T00:13:13;14.70;99.90
13591;DHT22;6866;50.778;7.206;2023-05-10T00:15:39;14.60;99.90
13591;DHT22;6866;50.778;7.206;2023-05-10T00:18:04;14.60;99.90
13591;DHT22;6866;50.778;7.206;2023-05-10T00:20:30;14.60;99.90
13591;DHT22;6866;50.778;7.206;2023-05-10T00:22:55;14.60;99.90
13591;DHT22;6866;50.778;7.206;2023-05-10T00:25:21;14.60;99.90
13591;DHT22;6866;50.778;7.206;2023-05-10T00:27:47;14.60;99.90
13591;DHT22;6866;50.778;7.206;2023-05-10T00:30:13;14.60;99.90
13591;DHT22;6866;50.778;7.206;2023-05-10T00:32:38;14.60;99.90
13591;DHT22;6866;50.778;7.206;2023-05-10T00:35:04;14.60;99.90
13591;DHT22;6866;50.778;7.206;2023-05-10T00:37:30;14.60;99.90
13591;DHT22;6866;50.778;7.206;2023-05-10T00:39:55;14.70;99.90
13591;DHT22;6866;50.778;7.206;2023-05-10T00:42:22;14.60;99.90
13591;DHT22;6866;50.778;7.206;2023-05-10T00:44:47;14.60;99.90
13591;DHT22;6866;50.778;7.206;2023-05-10T00:47:13;14.70;99.90
13591;DHT22;6866;50.778;7.206;2023-05-10T00:49:39;14.60;99.90
13591;DHT22;6866;50.778;7.206;2023-05-10T00:52:05;14.60;99.90
13591;DHT22;6866;50.778;7.206;2023-05-10T00:54:31;14.60;99.90
13591;DHT22;6866;50.778;7.206;2023-05-10T00:56:57;14.60;99.90
13591;DHT22;6866;50.778;7.206;2023-05-10T00:59:22;14.60;99.90
13591;DHT22;6866;50.778;7.206;2023-05-10T01:04:24;14.60;99.90
13591;DHT22;6866;50.778;7.206;2023-05-10T01:06:51;14.60;99.90
13591;DHT22;6866;50.778;7.206;2023-05-10T01:09:18;14.60;99.90
13591;DHT22;6866;50.778;7.206;2023-05-10T01:11:44;14.50;99.90
13591;DHT22;6866;50.778;7.206;2023-05-10T01:14:10;14.50;99.90
13591;DHT22;6866;50.778;7.206;2023-05-10T01:16:38;14.60;99.90
13591;DHT22;6866;50.778;7.206;2023-05-10T01:19:06;14.50;99.90
13591;DHT22;6866;50.778;7.206;2023-05-10T01:28:08;14.60;99.90
13591;DHT22;6866;50.778;7.206;2023-05-10T01:30:56;14.60;99.90
13591;DHT22;6866;50.778;7.206;2023-05-10T01:36:05;14.60;99.90
13591;DHT22;6866;50.778;7.206;2023-05-10T01:38:53;14.60;99.90
13591;DHT22;6866;50.778;7.206;2023-05-10T01:41:39;14.60;99.90
13591;DHT22;6866;50.778;7.206;2023-05-10T01:44:29;14.60;99.90
13591;DHT22;6866;50.778;7.206;2023-05-10T01:47:17;14.60;99.90
13591;DHT22;6866;50.778;7.206;2023-05-10T01:49:54;14.50;99.90
13591;DHT22;6866;50.778;7.206;2023-05-10T01:52:25;14.50;99.90
13591;DHT22;6866;50.778;7.206;2023-05-10T01:54:53;14.50;99.90
13591;DHT22;6866;50.778;7.206;2023-05-10T01:57:22;14.50;99.90
13591;DHT22;6866;50.778;7.206;2023-05-10T01:59:51;14.50;99.90
13591;DHT22;6866;50.778;7.206;2023-05-10T02:02:19;14.50;99.90
13591;DHT22;6866;50.778;7.206;2023-05-10T02:04:46;14.50;99.90
13591;DHT22;6866;50.778;7.206;2023-05-10T02:07:14;14.50;99.90
13591;DHT22;6866;50.778;7.206;2023-05-10T02:09:42;14.60;99.90
13591;DHT22;6866;50.778;7.206;2023-05-10T02:12:09;14.50;99.90
13591;DHT22;6866;50.778;7.206;2023-05-10T02:14:36;14.50;99.90
13591;DHT22;6866;50.778;7.206;2023-05-10T02:17:04;14.50;99.90
13591;DHT22;6866;50.778;7.206;2023-05-10T02:19:31;14.50;99.90
13591;DHT22;6866;50.778;7.206;2023-05-10T02:21:58;14.50;99.90
13591;DHT22;6866;50.778;7.206;2023-05-10T02:24:25;14.50;99.90
13591;DHT22;6866;50.778;7.206;2023-05-10T02:26:53;14.30;99.90
13591;DHT22;6866;50.778;7.206;2023-05-10T02:29:20;14.40;99.90
13591;DHT22;6866;50.778;7.206;2023-05-10T02:31:46;14.40;99.90
13591;DHT22;6866;50.778;7.206;2023-05-10T02:34:13;14.40;99.90
13591;DHT22;6866;50.778;7.206;2023-05-10T02:36:39;14.40;99.90
13591;DHT22;6866;50.778;7.206;2023-05-10T02:39:06;14.40;99.90
13591;DHT22;6866;50.778;7.206;2023-05-10T02:41:35;14.40;99.90
13591;DHT22;6866;50.778;7.206;2023-05-10T02:44:02;14.40;99.90
13591;DHT22;6866;50.778;7.206;2023-05-10T02:46:29;14.40;99.90
13591;DHT22;6866;50.778;7.206;2023-05-10T02:48:55;14.40;99.90
13591;DHT22;6866;50.778;7.206;2023-05-10T02:51:24;14.40;99.90
13591;DHT22;6866;50.778;7.206;2023-05-10T02:53:53;14.40;99.90
13591;DHT22;6866;50.778;7.206;2023-05-10T02:56:25;14.40;99.90
13591;DHT22;6866;50.778;7.206;2023-05-10T02:58:51;14.40;99.90
13591;DHT22;6866;50.778;7.206;2023-05-10T03:01:17;14.40;99.90
13591;DHT22;6866;50.778;7.206;2023-05-10T03:03:43;14.40;99.90
13591;DHT22;6866;50.778;7.206;2023-05-10T03:06:08;14.40;99.90
13591;DHT22;6866;50.778;7.206;2023-05-10T03:08:34;14.40;99.90
13591;DHT22;6866;50.778;7.206;2023-05-10T03:14:11;14.40;99.90
13591;DHT22;6866;50.778;7.206;2023-05-10T03:16:52;14.40;99.90
13591;DHT22;6866;50.778;7.206;2023-05-10T03:19:34;14.40;99.90
13591;DHT22;6866;50.778;7.206;2023-05-10T03:22:06;14.40;99.90
13591;DHT22;6866;50.778;7.206;2023-05-10T03:24:34;14.40;99.90
13591;DHT22;6866;50.778;7.206;2023-05-10T03:27:01;14.40;99.90
13591;DHT22;6866;50.778;7.206;2023-05-10T03:29:28;14.40;99.90
13591;DHT22;6866;50.778;7.206;2023-05-10T03:31:54;14.40;99.90
13591;DHT22;6866;50.778;7.206;2023-05-10T03:34:24;14.30;99.90
13591;DHT22;6866;50.778;7.206;2023-05-10T03:36:50;14.40;99.90
13591;DHT22;6866;50.778;7.206;2023-05-10T03:39:15;14.40;99.90
13591;DHT22;6866;50.778;7.206;2023-05-10T03:41:41;14.40;99.90
13591;DHT22;6866;50.778;7.206;2023-05-10T03:44:06;14.40;99.90
13591;DHT22;6866;50.778;7.206;2023-05-10T03:46:32;14.40;99.90
13591;DHT22;6866;50.778;7.206;2023-05-10T03:48:57;14.40;99.90
13591;DHT22;6866;50.778;7.206;2023-05-10T03:51:23;14.30;99.90
13591;DHT22;6866;50.778;7.206;2023-05-10T03:53:56;14.30;99.90
13591;DHT22;6866;50.778;7.206;2023-05-10T03:56:22;14.40;99.90
13591;DHT22;6866;50.778;7.206;2023-05-10T03:58:47;14.40;99.90
13591;DHT22;6866;50.778;7.206;2023-05-10T04:01:13;14.30;99.90
13591;DHT22;6866;50.778;7.206;2023-05-10T04:03:38;14.40;99.90
13591;DHT22;6866;50.778;7.206;2023-05-10T04:06:04;14.30;99.90
13591;DHT22;6866;50.778;7.206;2023-05-10T04:08:30;14.30;99.90
13591;DHT22;6866;50.778;7.206;2023-05-10T04:11:10;14.30;99.90
13591;DHT22;6866;50.778;7.206;2023-05-10T04:13:36;14.30;99.90
13591;DHT22;6866;50.778;7.206;2023-05-10T04:16:02;14.30;99.90
13591;DHT22;6866;50.778;7.206;2023-05-10T04:18:28;14.30;99.90
13591;DHT22;6866;50.778;7.206;2023-05-10T04:20:53;14.20;99.90
13591;DHT22;6866;50.778;7.206;2023-05-10T04:23:19;14.20;99.90
13591;DHT22;6866;50.778;7.206;2023-05-10T04:25:44;14.20;99.90
13591;DHT22;6866;50.778;7.206;2023-05-10T04:28:10;14.30;99.90
13591;DHT22;6866;50.778;7.206;2023-05-10T04:30:36;14.40;99.90
13591;DHT22;6866;50.778;7.206;2023-05-10T04:33:01;14.40;99.90
13591;DHT22;6866;50.778;7.206;2023-05-10T04:35:29;14.40;99.90
13591;DHT22;6866;50.778;7.206;2023-05-10T04:37:55;14.40;99.90
13591;DHT22;6866;50.778;7.206;2023-05-10T04:40:21;14.40;99.90
13591;DHT22;6866;50.778;7.206;2023-05-10T04:42:46;14.40;99.90
13591;DHT22;6866;50.778;7.206;2023-05-10T04:45:12;14.30;99.90
13591;DHT22;6866;50.778;7.206;2023-05-10T04:47:39;14.20;99.90
13591;DHT22;6866;50.778;7.206;2023-05-10T04:50:05;14.30;99.90
13591;DHT22;6866;50.778;7.206;2023-05-10T04:52:31;14.30;99.90
13591;DHT22;6866;50.778;7.206;2023-05-10T04:54:57;14.30;99.90
13591;DHT22;6866;50.778;7.206;2023-05-10T04:57:22;14.30;99.90
13591;DHT22;6866;50.778;7.206;2023-05-10T04:59:48;14.40;99.90
13591;DHT22;6866;50.778;7.206;2023-05-10T05:02:13;14.40;99.90
13591;DHT22;6866;50.778;7.206;2023-05-10T05:04:39;14.50;99.90
13591;DHT22;6866;50.778;7.206;2023-05-10T05:07:05;14.50;99.90
13591;DHT22;6866;50.778;7.206;2023-05-10T05:09:30;14.50;99.90
13591;DHT22;6866;50.778;7.206;2023-05-10T05:11:57;14.50;99.90
13591;DHT22;6866;50.778;7.206;2023-05-10T05:14:23;14.50;99.90
13591;DHT22;6866;50.778;7.206;2023-05-10T05:16:51;14.60;99.90
13591;DHT22;6866;50.778;7.206;2023-05-10T05:19:16;14.50;99.90
13591;DHT22;6866;50.778;7.206;2023-05-10T05:21:42;14.50;99.90
13591;DHT22;6866;50.778;7.206;2023-05-10T05:24:07;14.60;99.90
13591;DHT22;6866;50.778;7.206;2023-05-10T05:26:33;14.60;99.90
13591;DHT22;6866;50.778;7.206;2023-05-10T05:28:58;14.60;99.90
13591;DHT22;6866;50.778;7.206;2023-05-10T05:31:24;14.60;99.90
13591;DHT22;6866;50.778;7.206;2023-05-10T05:33:50;14.60;99.90
13591;DHT22;6866;50.778;7.206;2023-05-10T05:36:15;14.70;99.90
13591;DHT22;6866;50.778;7.206;2023-05-10T05:38:41;14.70;99.90
13591;DHT22;6866;50.778;7.206;2023-05-10T05:41:08;14.80;99.90
13591;DHT22;6866;50.778;7.206;2023-05-10T05:43:33;14.80;99.90
13591;DHT22;6866;50.778;7.206;2023-05-10T05:45:59;14.80;99.90
13591;DHT22;6866;50.778;7.206;2023-05-10T05:48:25;14.70;99.90
13591;DHT22;6866;50.778;7.206;2023-05-10T05:50:53;14.80;99.90
13591;DHT22;6866;50.778;7.206;2023-05-10T05:53:19;14.80;99.90
13591;DHT22;6866;50.778;7.206;2023-05-10T05:55:55;14.90;99.90
13591;DHT22;6866;50.778;7.206;2023-05-10T05:58:22;14.90;99.90
13591;DHT22;6866;50.778;7.206;2023-05-10T06:00:48;14.90;99.90
13591;DHT22;6866;50.778;7.206;2023-05-10T06:03:13;14.90;99.90
13591;DHT22;6866;50.778;7.206;2023-05-10T06:05:39;14.90;99.90
13591;DHT22;6866;50.778;7.206;2023-05-10T06:08:04;14.90;99.90
13591;DHT22;6866;50.778;7.206;2023-05-10T06:10:30;14.90;99.90
13591;DHT22;6866;50.778;7.206;2023-05-10T06:12:56;14.90;99.90
13591;DHT22;6866;50.778;7.206;2023-05-10T06:15:21;15.00;99.90
13591;DHT22;6866;50.778;7.206;2023-05-10T06:17:47;15.00;99.90
13591;DHT22;6866;50.778;7.206;2023-05-10T06:20:15;15.10;99.90
13591;DHT22;6866;50.778;7.206;2023-05-10T06:22:41;15.00;99.90
13591;DHT22;6866;50.778;7.206;2023-05-10T06:25:07;15.00;99.90
13591;DHT22;6866;50.778;7.206;2023-05-10T06:27:33;15.00;99.90
13591;DHT22;6866;50.778;7.206;2023-05-10T06:29:58;15.10;99.90
13591;DHT22;6866;50.778;7.206;2023-05-10T06:32:24;15.20;99.90
13591;DHT22;6866;50.778;7.206;2023-05-10T06:34:49;15.20;99.90
13591;DHT22;6866;50.778;7.206;2023-05-10T06:37:15;15.30;99.90
13591;DHT22;6866;50.778;7.206;2023-05-10T06:39:41;15.30;99.90
13591;DHT22;6866;50.778;7.206;2023-05-10T06:42:06;15.40;99.90
13591;DHT22;6866;50.778;7.206;2023-05-10T06:44:32;15.50;99.90
13591;DHT22;6866;50.778;7.206;2023-05-10T06:46:57;15.60;99.90
13591;DHT22;6866;50.778;7.206;2023-05-10T06:49:23;15.60;99.90
13591;DHT22;6866;50.778;7.206;2023-05-10T06:51:48;15.60;99.90
13591;DHT22;6866;50.778;7.206;2023-05-10T06:54:14;15.50;99.90
13591;DHT22;6866;50.778;7.206;2023-05-10T06:56:39;15.50;99.90
13591;DHT22;6866;50.778;7.206;2023-05-10T06:59:05;15.50;99.90
13591;DHT22;6866;50.778;7.206;2023-05-10T07:01:30;15.40;99.90
13591;DHT22;6866;50.778;7.206;2023-05-10T07:03:56;15.40;99.90
13591;DHT22;6866;50.778;7.206;2023-05-10T07:06:22;15.30;99.90
13591;DHT22;6866;50.778;7.206;2023-05-10T07:08:47;15.10;99.90
13591;DHT22;6866;50.778;7.206;2023-05-10T07:11:13;15.20;99.90
13591;DHT22;6866;50.778;7.206;2023-05-10T07:13:39;15.10;99.90
13591;DHT22;6866;50.778;7.206;2023-05-10T07:16:09;15.00;99.90
13591;DHT22;6866;50.778;7.206;2023-05-10T07:18:35;15.00;99.90
13591;DHT22;6866;50.778;7.206;2023-05-10T07:21:01;15.00;99.90
13591;DHT22;6866;50.778;7.206;2023-05-10T07:23:27;15.00;99.90
13591;DHT22;6866;50.778;7.206;2023-05-10T07:25:53;15.10;99.90
13591;DHT22;6866;50.778;7.206;2023-05-10T07:28:19;15.10;99.90
13591;DHT22;6866;50.778;7.206;2023-05-10T07:30:44;15.00;99.90
13591;DHT22;6866;50.778;7.206;2023-05-10T07:33:11;15.00;99.90
13591;DHT22;6866;50.778;7.206;2023-05-10T07:35:37;15.00;99.90
13591;DHT22;6866;50.778;7.206;2023-05-10T07:38:03;15.00;99.90
13591;DHT22;6866;50.778;7.206;2023-05-10T07:40:29;15.00;99.90
13591;DHT22;6866;50.778;7.206;2023-05-10T07:42:54;15.10;99.90
13591;DHT22;6866;50.778;7.206;2023-05-10T07:45:20;15.10;99.90
13591;DHT22;6866;50.778;7.206;2023-05-10T07:47:45;15.20;99.90
13591;DHT22;6866;50.778;7.206;2023-05-10T07:50:11;15.20;99.90
13591;DHT22;6866;50.778;7.206;2023-05-10T07:52:36;15.30;99.90
13591;DHT22;6866;50.778;7.206;2023-05-10T07:55:02;15.30;99.90
13591;DHT22;6866;50.778;7.206;2023-05-10T07:57:28;15.30;99.90
13591;DHT22;6866;50.778;7.206;2023-05-10T07:59:53;15.30;99.90
13591;DHT22;6866;50.778;7.206;2023-05-10T08:02:19;15.40;99.90
13591;DHT22;6866;50.778;7.206;2023-05-10T08:04:44;15.40;99.90
13591;DHT22;6866;50.778;7.206;2023-05-10T08:07:10;15.40;99.90
13591;DHT22;6866;50.778;7.206;2023-05-10T08:09:36;15.30;99.90
13591;DHT22;6866;50.778;7.206;2023-05-10T08:12:02;15.00;99.90
13591;DHT22;6866;50.778;7.206;2023-05-10T08:14:28;15.10;99.90
13591;DHT22;6866;50.778;7.206;2023-05-10T08:16:54;15.10;99.90
13591;DHT22;6866;50.778;7.206;2023-05-10T08:19:20;15.20;99.90
13591;DHT22;6866;50.778;7.206;2023-05-10T08:21:47;15.30;99.90
13591;DHT22;6866;50.778;7.206;2023-05-10T08:24:12;15.30;99.90
13591;DHT22;6866;50.778;7.206;2023-05-10T08:26:38;15.20;99.90
13591;DHT22;6866;50.778;7.206;2023-05-10T08:29:03;15.30;99.90
13591;DHT22;6866;50.778;7.206;2023-05-10T08:31:29;15.30;99.90
13591;DHT22;6866;50.778;7.206;2023-05-10T08:33:54;15.30;99.90
13591;DHT22;6866;50.778;7.206;2023-05-10T08:36:20;15.40;99.90
13591;DHT22;6866;50.778;7.206;2023-05-10T08:38:54;15.50;99.90
13591;DHT22;6866;50.778;7.206;2023-05-10T08:41:20;15.40;99.90
13591;DHT22;6866;50.778;7.206;2023-05-10T08:43:47;15.60;99.90
13591;DHT22;6866;50.778;7.206;2023-05-10T08:46:17;15.60;99.90
13591;DHT22;6866;50.778;7.206;2023-05-10T08:48:47;15.70;99.90
13591;DHT22;6866;50.778;7.206;2023-05-10T08:51:14;15.80;99.90
13591;DHT22;6866;50.778;7.206;2023-05-10T08:53:41;15.90;99.90
13591;DHT22;6866;50.778;7.206;2023-05-10T08:56:07;16.00;99.90
13591;DHT22;6866;50.778;7.206;2023-05-10T08:58:33;16.10;99.90
13591;DHT22;6866;50.778;7.206;2023-05-10T09:00:59;16.00;99.90
13591;DHT22;6866;50.778;7.206;2023-05-10T09:03:26;16.10;99.90
13591;DHT22;6866;50.778;7.206;2023-05-10T09:05:51;15.90;99.90
13591;DHT22;6866;50.778;7.206;2023-05-10T09:08:17;16.10;99.90
13591;DHT22;6866;50.778;7.206;2023-05-10T09:10:44;16.10;99.90
13591;DHT22;6866;50.778;7.206;2023-05-10T09:13:14;16.20;99.90
13591;DHT22;6866;50.778;7.206;2023-05-10T09:15:40;16.20;99.90
13591;DHT22;6866;50.778;7.206;2023-05-10T09:18:06;16.40;99.90
13591;DHT22;6866;50.778;7.206;2023-05-10T09:20:32;16.20;99.90
13591;DHT22;6866;50.778;7.206;2023-05-10T09:22:57;15.80;99.90
13591;DHT22;6866;50.778;7.206;2023-05-10T09:25:23;15.80;99.90
13591;DHT22;6866;50.778;7.206;2023-05-10T09:27:49;15.90;99.90
13591;DHT22;6866;50.778;7.206;2023-05-10T09:30:29;15.80;99.90
13591;DHT22;6866;50.778;7.206;2023-05-10T09:32:57;15.80;99.90
13591;DHT22;6866;50.778;7.206;2023-05-10T09:35:28;15.50;99.90
13591;DHT22;6866;50.778;7.206;2023-05-10T09:37:55;15.60;99.90
13591;DHT22;6866;50.778;7.206;2023-05-10T09:40:23;15.70;99.90
13591;DHT22;6866;50.778;7.206;2023-05-10T09:43:00;15.70;99.90
13591;DHT22;6866;50.778;7.206;2023-05-10T09:45:28;15.70;99.90
13591;DHT22;6866;50.778;7.206;2023-05-10T09:47:55;15.80;99.90
13591;DHT22;6866;50.778;7.206;2023-05-10T09:50:21;15.80;99.90
13591;DHT22;6866;50.778;7.206;2023-05-10T09:52:48;15.90;99.90
13591;DHT22;6866;50.778;7.206;2023-05-10T09:55:14;16.00;99.90
13591;DHT22;6866;50.778;7.206;2023-05-10T09:57:39;16.10;99.90
13591;DHT22;6866;50.778;7.206;2023-05-10T10:00:06;16.30;99.90
13591;DHT22;6866;50.778;7.206;2023-05-10T10:02:32;16.60;99.90
13591;DHT22;6866;50.778;7.206;2023-05-10T10:05:02;16.90;99.90
13591;DHT22;6866;50.778;7.206;2023-05-10T10:07:29;17.20;99.90
13591;DHT22;6866;50.778;7.206;2023-05-10T10:09:55;17.30;99.90
13591;DHT22;6866;50.778;7.206;2023-05-10T10:12:20;17.40;99.90
13591;DHT22;6866;50.778;7.206;2023-05-10T10:14:47;17.70;99.90
13591;DHT22;6866;50.778;7.206;2023-05-10T10:17:13;17.70;99.90
13591;DHT22;6866;50.778;7.206;2023-05-10T10:19:39;17.70;99.90
13591;DHT22;6866;50.778;7.206;2023-05-10T10:22:05;17.80;99.90
13591;DHT22;6866;50.778;7.206;2023-05-10T10:24:31;17.80;99.90
13591;DHT22;6866;50.778;7.206;2023-05-10T10:27:07;17.70;99.90
13591;DHT22;6866;50.778;7.206;2023-05-10T10:35:00;18.20;99.90
13591;DHT22;6866;50.778;7.206;2023-05-10T10:37:44;18.30;99.90
13591;DHT22;6866;50.778;7.206;2023-05-10T10:40:24;18.40;99.90
13591;DHT22;6866;50.778;7.206;2023-05-10T10:42:51;18.60;99.90
13591;DHT22;6866;50.778;7.206;2023-05-10T10:45:16;18.70;99.90
13591;DHT22;6866;50.778;7.206;2023-05-10T10:47:42;19.10;99.90
13591;DHT22;6866;50.778;7.206;2023-05-10T10:50:09;18.90;99.90
13591;DHT22;6866;50.778;7.206;2023-05-10T10:52:43;18.80;99.90
13591;DHT22;6866;50.778;7.206;2023-05-10T10:55:10;18.60;99.90
13591;DHT22;6866;50.778;7.206;2023-05-10T10:57:45;18.60;99.90
13591;DHT22;6866;50.778;7.206;2023-05-10T11:05:38;17.80;99.90
13591;DHT22;6866;50.778;7.206;2023-05-10T11:13:28;17.00;99.90
13591;DHT22;6866;50.778;7.206;2023-05-10T11:15:54;17.10;99.90
13591;DHT22;6866;50.778;7.206;2023-05-10T11:18:27;17.40;99.90
13591;DHT22;6866;50.778;7.206;2023-05-10T11:20:57;17.40;99.90
13591;DHT22;6866;50.778;7.206;2023-05-10T11:23:28;17.70;99.90
13591;DHT22;6866;50.778;7.206;2023-05-10T11:25:54;17.90;99.90
13591;DHT22;6866;50.778;7.206;2023-05-10T11:28:20;17.90;99.90
13591;DHT22;6866;50.778;7.206;2023-05-10T11:30:46;17.60;99.90
13591;DHT22;6866;50.778;7.206;2023-05-10T11:33:16;17.40;99.90
13591;DHT22;6866;50.778;7.206;2023-05-10T11:35:42;17.10;99.90
13591;DHT22;6866;50.778;7.206;2023-05-10T11:38:09;17.20;99.90
13591;DHT22;6866;50.778;7.206;2023-05-10T11:40:35;17.30;99.90
13591;DHT22;6866;50.778;7.206;2023-05-10T11:43:02;17.20;99.90
13591;DHT22;6866;50.778;7.206;2023-05-10T11:45:28;17.30;99.90
13591;DHT22;6866;50.778;7.206;2023-05-10T11:47:55;17.50;99.90
13591;DHT22;6866;50.778;7.206;2023-05-10T11:50:21;17.90;99.90
13591;DHT22;6866;50.778;7.206;2023-05-10T11:52:51;18.30;99.90
13591;DHT22;6866;50.778;7.206;2023-05-10T11:55:17;18.50;99.90
13591;DHT22;6866;50.778;7.206;2023-05-10T11:57:42;18.40;99.90
13591;DHT22;6866;50.778;7.206;2023-05-10T12:00:12;18.20;99.90
13591;DHT22;6866;50.778;7.206;2023-05-10T12:02:38;18.10;99.90
13591;DHT22;6866;50.778;7.206;2023-05-10T12:05:04;18.30;99.90
13591;DHT22;6866;50.778;7.206;2023-05-10T12:07:30;18.40;99.90
13591;DHT22;6866;50.778;7.206;2023-05-10T12:10:09;18.50;99.10
13591;DHT22;6866;50.778;7.206;2023-05-10T12:12:39;18.60;99.90
13591;DHT22;6866;50.778;7.206;2023-05-10T12:15:11;18.70;97.30
13591;DHT22;6866;50.778;7.206;2023-05-10T12:17:38;18.90;99.90
13591;DHT22;6866;50.778;7.206;2023-05-10T12:20:19;19.10;97.70
13591;DHT22;6866;50.778;7.206;2023-05-10T12:22:56;18.90;97.40
13591;DHT22;6866;50.778;7.206;2023-05-10T12:25:23;18.80;98.10
13591;DHT22;6866;50.778;7.206;2023-05-10T12:27:54;18.80;98.00
13591;DHT22;6866;50.778;7.206;2023-05-10T12:30:25;18.70;98.50
13591;DHT22;6866;50.778;7.206;2023-05-10T12:32:51;18.80;98.80
13591;DHT22;6866;50.778;7.206;2023-05-10T12:35:17;18.80;99.70
13591;DHT22;6866;50.778;7.206;2023-05-10T12:37:47;18.60;98.50
13591;DHT22;6866;50.778;7.206;2023-05-10T12:40:13;18.60;97.60
13591;DHT22;6866;50.778;7.206;2023-05-10T12:42:39;18.50;96.10
13591;DHT22;6866;50.778;7.206;2023-05-10T12:45:06;18.50;94.70
13591;DHT22;6866;50.778;7.206;2023-05-10T12:47:32;18.50;98.00
13591;DHT22;6866;50.778;7.206;2023-05-10T12:50:01;18.60;96.40
13591;DHT22;6866;50.778;7.206;2023-05-10T12:52:27;18.50;96.90
13591;DHT22;6866;50.778;7.206;2023-05-10T12:54:53;18.50;97.60
13591;DHT22;6866;50.778;7.206;2023-05-10T12:57:20;18.40;94.90
13591;DHT22;6866;50.778;7.206;2023-05-10T12:59:46;18.40;97.70
13591;DHT22;6866;50.778;7.206;2023-05-10T13:02:12;18.40;96.30
13591;DHT22;6866;50.778;7.206;2023-05-10T13:04:38;18.40;96.50
13591;DHT22;6866;50.778;7.206;2023-05-10T13:07:06;18.50;98.80
13591;DHT22;6866;50.778;7.206;2023-05-10T13:09:31;18.60;98.10
13591;DHT22;6866;50.778;7.206;2023-05-10T13:11:57;18.70;97.10
13591;DHT22;6866;50.778;7.206;2023-05-10T13:14:22;18.80;96.20
13591;DHT22;6866;50.778;7.206;2023-05-10T13:16:48;18.70;97.70
13591;DHT22;6866;50.778;7.206;2023-05-10T13:19:15;18.40;96.80
13591;DHT22;6866;50.778;7.206;2023-05-10T13:21:40;18.40;98.90
13591;DHT22;6866;50.778;7.206;2023-05-10T13:24:06;18.30;99.90
13591;DHT22;6866;50.778;7.206;2023-05-10T13:26:32;18.10;99.90
13591;DHT22;6866;50.778;7.206;2023-05-10T13:28:58;17.80;99.90
13591;DHT22;6866;50.778;7.206;2023-05-10T13:31:23;17.90;99.90
13591;DHT22;6866;50.778;7.206;2023-05-10T13:33:49;17.90;99.90
13591;DHT22;6866;50.778;7.206;2023-05-10T13:36:14;17.90;99.90
13591;DHT22;6866;50.778;7.206;2023-05-10T13:38:40;17.90;99.90
13591;DHT22;6866;50.778;7.206;2023-05-10T13:41:05;18.10;99.90
13591;DHT22;6866;50.778;7.206;2023-05-10T13:43:31;18.00;99.90
13591;DHT22;6866;50.778;7.206;2023-05-10T13:45:56;18.00;99.90
13591;DHT22;6866;50.778;7.206;2023-05-10T13:48:22;18.00;99.90
13591;DHT22;6866;50.778;7.206;2023-05-10T13:50:48;18.20;99.90
13591;DHT22;6866;50.778;7.206;2023-05-10T13:53:13;18.20;99.90
13591;DHT22;6866;50.778;7.206;2023-05-10T13:55:39;18.00;99.90
13591;DHT22;6866;50.778;7.206;2023-05-10T13:58:05;17.80;99.90
13591;DHT22;6866;50.778;7.206;2023-05-10T14:00:30;17.70;99.90
13591;DHT22;6866;50.778;7.206;2023-05-10T14:02:56;17.40;99.90
13591;DHT22;6866;50.778;7.206;2023-05-10T14:05:22;17.30;99.90
13591;DHT22;6866;50.778;7.206;2023-05-10T14:07:49;17.20;99.90
13591;DHT22;6866;50.778;7.206;2023-05-10T14:10:15;17.30;99.90
13591;DHT22;6866;50.778;7.206;2023-05-10T14:12:41;17.40;99.90
13591;DHT22;6866;50.778;7.206;2023-05-10T14:15:07;17.30;99.90
13591;DHT22;6866;50.778;7.206;2023-05-10T14:17:32;17.30;99.90
13591;DHT22;6866;50.778;7.206;2023-05-10T14:19:58;17.30;99.90
13591;DHT22;6866;50.778;7.206;2023-05-10T14:22:23;17.40;99.90
13591;DHT22;6866;50.778;7.206;2023-05-10T14:24:49;17.30;99.90
13591;DHT22;6866;50.778;7.206;2023-05-10T14:27:15;17.20;99.90
13591;DHT22;6866;50.778;7.206;2023-05-10T14:29:41;17.20;99.90
13591;DHT22;6866;50.778;7.206;2023-05-10T14:32:07;17.10;99.90
13591;DHT22;6866;50.778;7.206;2023-05-10T14:34:33;17.20;99.90
13591;DHT22;6866;50.778;7.206;2023-05-10T14:36:58;17.00;99.90
13591;DHT22;6866;50.778;7.206;2023-05-10T14:39:24;17.10;99.90
13591;DHT22;6866;50.778;7.206;2023-05-10T14:41:50;17.20;99.90
13591;DHT22;6866;50.778;7.206;2023-05-10T14:44:16;17.10;99.90
13591;DHT22;6866;50.778;7.206;2023-05-10T14:46:42;17.10;99.90
13591;DHT22;6866;50.778;7.206;2023-05-10T14:49:07;17.00;99.90
13591;DHT22;6866;50.778;7.206;2023-05-10T14:51:33;17.00;99.90
13591;DHT22;6866;50.778;7.206;2023-05-10T14:53:59;17.00;99.90
13591;DHT22;6866;50.778;7.206;2023-05-10T14:56:24;16.70;99.90
13591;DHT22;6866;50.778;7.206;2023-05-10T14:58:51;16.80;99.90
13591;DHT22;6866;50.778;7.206;2023-05-10T15:01:16;16.60;99.90
13591;DHT22;6866;50.778;7.206;2023-05-10T15:03:42;16.70;99.90
13591;DHT22;6866;50.778;7.206;2023-05-10T15:06:08;16.90;99.90
13591;DHT22;6866;50.778;7.206;2023-05-10T15:08:34;16.80;99.90
13591;DHT22;6866;50.778;7.206;2023-05-10T15:10:59;16.90;99.90
13591;DHT22;6866;50.778;7.206;2023-05-10T15:13:25;16.90;99.90
13591;DHT22;6866;50.778;7.206;2023-05-10T15:15:50;17.00;99.90
13591;DHT22;6866;50.778;7.206;2023-05-10T15:18:16;17.30;99.90
13591;DHT22;6866;50.778;7.206;2023-05-10T15:20:41;17.50;99.90
13591;DHT22;6866;50.778;7.206;2023-05-10T15:23:07;17.60;99.90
13591;DHT22;6866;50.778;7.206;2023-05-10T15:25:33;17.90;99.90
13591;DHT22;6866;50.778;7.206;2023-05-10T15:28:03;18.00;99.90
13591;DHT22;6866;50.778;7.206;2023-05-10T15:30:29;17.70;99.90
13591;DHT22;6866;50.778;7.206;2023-05-10T15:32:55;17.90;99.90
13591;DHT22;6866;50.778;7.206;2023-05-10T15:35:21;17.70;99.90
13591;DHT22;6866;50.778;7.206;2023-05-10T15:37:47;17.80;99.90
13591;DHT22;6866;50.778;7.206;2023-05-10T15:40:13;17.90;99.90
13591;DHT22;6866;50.778;7.206;2023-05-10T15:42:38;17.80;99.90
13591;DHT22;6866;50.778;7.206;2023-05-10T15:45:04;17.80;99.90
13591;DHT22;6866;50.778;7.206;2023-05-10T15:47:30;17.80;99.90
13591;DHT22;6866;50.778;7.206;2023-05-10T15:49:56;18.00;99.90
13591;DHT22;6866;50.778;7.206;2023-05-10T15:52:22;17.90;99.90
13591;DHT22;6866;50.778;7.206;2023-05-10T15:54:48;17.80;99.90
13591;DHT22;6866;50.778;7.206;2023-05-10T15:57:14;17.60;99.90
13591;DHT22;6866;50.778;7.206;2023-05-10T15:59:39;17.40;99.90
13591;DHT22;6866;50.778;7.206;2023-05-10T16:02:06;17.40;99.90
13591;DHT22;6866;50.778;7.206;2023-05-10T16:04:31;17.40;99.90
13591;DHT22;6866;50.778;7.206;2023-05-10T16:06:57;17.40;99.90
13591;DHT22;6866;50.778;7.206;2023-05-10T16:09:22;17.40;99.90
13591;DHT22;6866;50.778;7.206;2023-05-10T16:11:48;17.30;99.90
13591;DHT22;6866;50.778;7.206;2023-05-10T16:14:14;17.30;99.90